Aeroporto :
LOGIN :

Iscrizione | Disclaimer

   EN    FR    IT 

 










Sommario :    VFR   VFR Marginale   IFR   IFR Intensivo   IFR Molto Intensivo
Visibilità : 
Base nubi : 
>= 8 km
>= 3000ft
5 / 8 km
1000 / 3000 ft
1500m / 5 km
500 / 1000 ft
800 / 1500m
200 / 500 ft
< 800m
< 200 ft
Simboli :   Temporali  Nebbia  Neve Forte  Precipitazioni Forti  Vento > 20 kt
SIGMETs :   Varie  Temporali  Ghiacco  Turbolenza  Onda orograficha  Ceneri Vulcaniche







- Altitudine del aeroporto : 0 ft


ETEB - Ansbach Army Heliport

ULTIMO METAR :
  • 181056Z AUTO 13006KT 9999 FEW006 BKN015 04/04 A3028 RMK AO2 SLP287 T00410041 $

METARs OBSOLETI :
  • 181045Z AUTO 13005KT 9999 FEW006 BKN015 04/04 A3029 RMK AO2 SLP290 $
  • 180956Z AUTO 00000KT 9999 OVC012 02/02 A3032 RMK AO2 SLP303 T00160016 $
  • 180911Z AUTO 00000KT 5000 BR OVC011 01/01 A3033 RMK AO2 SLP306 $
  • 180856Z 00000KT 4400 BR OVC011 01/01 A3033 RMK AO2A SLP306 T00070007 50003 $
  • 180850Z 00000KT 4000 BR OVC011 01/01 A3032 RMK AO2A OVC V BKN SLP303 $
  • 180835Z 13003KT 1800 BR FEW001 BKN011 00/00 A3032 RMK AO2A VIS 0400V1800 BKN V SCT SLP305 $
  • 180756Z 00000KT 0200 FZFG VV000 M01/M01 A3032 RMK AO2A SLP305 T10071007 RVRNO $

TAF AMD TAF ETEB
Valido dal 18 a 09 ore il 19 a 12 ore UTC


180931Z 1809/1912 VRB06KT 5000 BR OVC010 QNH3028INS
BECMG 1812/1813 16012KT 9999 NSW SCT030 QNH3018INS
TEMPO 1813/1818 BKN015
BECMG 1821/1822 16012KT 6000 -SHRA BR BKN010 620107 QNH3008INS TX04/1812Z TNM01/1822Z
Nessun NOTAM noto per questo aeroporto.



MetMap, La meteo Aeronautica in un colpo d'occhio ! - Copyright ORBIFLY Dicembre 2007 - Disclaimer

ORBIFLY MET'MAP TEAM :

Programmazione e sviluppo : Alexandra Zaïnal
Concezione e sviluppo : Baudouin d'Aumeries
Co-Programmazione e sviluppo : Marc-Olivier Méhu
Supporto tecnico e logistico : Manuel Goepfert
Aiuto per la traduzione : Arnaldo La Scala

Contatto : metmap@orbifly.com




FONTI E CREDITI :

   NOAA